sensor_id;sensor_type;location;lat;lon;timestamp;temperature;humidity
17333;DHT22;8784;50.94667800;7.08448400;2023-04-06T00:00:47;4.00;66.60
17333;DHT22;8784;50.94667800;7.08448400;2023-04-06T00:03:14;3.90;66.40
17333;DHT22;8784;50.94667800;7.08448400;2023-04-06T00:05:41;3.80;66.50
17333;DHT22;8784;50.94667800;7.08448400;2023-04-06T00:08:08;3.60;66.80
17333;DHT22;8784;50.94667800;7.08448400;2023-04-06T00:10:35;3.60;67.10
17333;DHT22;8784;50.94667800;7.08448400;2023-04-06T00:13:02;3.50;67.40
17333;DHT22;8784;50.94667800;7.08448400;2023-04-06T00:15:31;3.50;67.70
17333;DHT22;8784;50.94667800;7.08448400;2023-04-06T00:17:58;3.60;68.00
17333;DHT22;8784;50.94667800;7.08448400;2023-04-06T00:20:25;3.60;67.80
17333;DHT22;8784;50.94667800;7.08448400;2023-04-06T00:22:52;3.50;67.90
17333;DHT22;8784;50.94667800;7.08448400;2023-04-06T00:25:19;3.50;67.90
17333;DHT22;8784;50.94667800;7.08448400;2023-04-06T00:27:46;3.50;67.90
17333;DHT22;8784;50.94667800;7.08448400;2023-04-06T00:30:13;3.50;68.00
17333;DHT22;8784;50.94667800;7.08448400;2023-04-06T00:32:41;3.40;68.20
17333;DHT22;8784;50.94667800;7.08448400;2023-04-06T00:35:09;3.40;68.40
17333;DHT22;8784;50.94667800;7.08448400;2023-04-06T00:37:36;3.50;68.60
17333;DHT22;8784;50.94667800;7.08448400;2023-04-06T00:40:03;3.40;68.60
17333;DHT22;8784;50.94667800;7.08448400;2023-04-06T00:42:31;3.40;68.70
17333;DHT22;8784;50.94667800;7.08448400;2023-04-06T00:44:59;3.50;68.70
17333;DHT22;8784;50.94667800;7.08448400;2023-04-06T00:47:26;3.50;68.80
17333;DHT22;8784;50.94667800;7.08448400;2023-04-06T00:49:55;3.50;68.90
17333;DHT22;8784;50.94667800;7.08448400;2023-04-06T00:52:22;3.50;68.70
17333;DHT22;8784;50.94667800;7.08448400;2023-04-06T00:54:49;3.50;69.70
17333;DHT22;8784;50.94667800;7.08448400;2023-04-06T00:57:16;3.40;69.10
17333;DHT22;8784;50.94667800;7.08448400;2023-04-06T00:59:43;3.50;69.30
17333;DHT22;8784;50.94667800;7.08448400;2023-04-06T01:02:11;3.40;69.20
17333;DHT22;8784;50.94667800;7.08448400;2023-04-06T01:04:38;3.40;69.50
17333;DHT22;8784;50.94667800;7.08448400;2023-04-06T01:07:06;3.50;69.50
17333;DHT22;8784;50.94667800;7.08448400;2023-04-06T01:09:33;3.50;69.40
17333;DHT22;8784;50.94667800;7.08448400;2023-04-06T01:12:00;3.40;69.30
17333;DHT22;8784;50.94667800;7.08448400;2023-04-06T01:14:27;3.40;69.50
17333;DHT22;8784;50.94667800;7.08448400;2023-04-06T01:16:58;3.40;69.60
17333;DHT22;8784;50.94667800;7.08448400;2023-04-06T01:19:25;3.40;69.70
17333;DHT22;8784;50.94667800;7.08448400;2023-04-06T01:21:52;3.40;69.70
17333;DHT22;8784;50.94667800;7.08448400;2023-04-06T01:24:21;3.40;69.80
17333;DHT22;8784;50.94667800;7.08448400;2023-04-06T01:26:48;3.40;69.90
17333;DHT22;8784;50.94667800;7.08448400;2023-04-06T01:29:15;3.40;70.20
17333;DHT22;8784;50.94667800;7.08448400;2023-04-06T01:31:42;3.40;70.10
17333;DHT22;8784;50.94667800;7.08448400;2023-04-06T01:34:09;3.40;70.20
17333;DHT22;8784;50.94667800;7.08448400;2023-04-06T01:36:36;3.30;70.90
17333;DHT22;8784;50.94667800;7.08448400;2023-04-06T01:39:03;3.30;70.30
17333;DHT22;8784;50.94667800;7.08448400;2023-04-06T01:41:31;3.30;70.30
17333;DHT22;8784;50.94667800;7.08448400;2023-04-06T01:43:58;3.20;70.30
17333;DHT22;8784;50.94667800;7.08448400;2023-04-06T01:46:25;3.30;70.40
17333;DHT22;8784;50.94667800;7.08448400;2023-04-06T01:48:52;3.20;70.60
17333;DHT22;8784;50.94667800;7.08448400;2023-04-06T01:51:19;3.20;70.50
17333;DHT22;8784;50.94667800;7.08448400;2023-04-06T01:53:46;3.20;70.60
17333;DHT22;8784;50.94667800;7.08448400;2023-04-06T01:56:13;3.10;70.50
17333;DHT22;8784;50.94667800;7.08448400;2023-04-06T01:58:42;3.20;70.50
17333;DHT22;8784;50.94667800;7.08448400;2023-04-06T02:01:09;3.20;70.60
17333;DHT22;8784;50.94667800;7.08448400;2023-04-06T02:03:37;3.10;70.50
17333;DHT22;8784;50.94667800;7.08448400;2023-04-06T02:06:04;3.10;70.60
17333;DHT22;8784;50.94667800;7.08448400;2023-04-06T02:08:31;3.10;70.90
17333;DHT22;8784;50.94667800;7.08448400;2023-04-06T02:10:58;3.10;70.90
17333;DHT22;8784;50.94667800;7.08448400;2023-04-06T02:13:25;3.10;71.10
17333;DHT22;8784;50.94667800;7.08448400;2023-04-06T02:15:54;3.10;70.90
17333;DHT22;8784;50.94667800;7.08448400;2023-04-06T02:18:21;3.10;71.10
17333;DHT22;8784;50.94667800;7.08448400;2023-04-06T02:20:48;3.00;71.00
17333;DHT22;8784;50.94667800;7.08448400;2023-04-06T02:23:14;3.00;71.20
17333;DHT22;8784;50.94667800;7.08448400;2023-04-06T02:25:41;3.00;71.20
17333;DHT22;8784;50.94667800;7.08448400;2023-04-06T02:28:08;3.00;71.20
17333;DHT22;8784;50.94667800;7.08448400;2023-04-06T02:30:36;3.00;71.40
17333;DHT22;8784;50.94667800;7.08448400;2023-04-06T02:33:04;3.00;71.40
17333;DHT22;8784;50.94667800;7.08448400;2023-04-06T02:35:31;2.90;71.50
17333;DHT22;8784;50.94667800;7.08448400;2023-04-06T02:37:58;2.90;71.60
17333;DHT22;8784;50.94667800;7.08448400;2023-04-06T02:40:25;2.90;71.80
17333;DHT22;8784;50.94667800;7.08448400;2023-04-06T02:42:52;2.90;71.80
17333;DHT22;8784;50.94667800;7.08448400;2023-04-06T02:45:19;2.90;71.80
17333;DHT22;8784;50.94667800;7.08448400;2023-04-06T02:47:46;2.90;71.90
17333;DHT22;8784;50.94667800;7.08448400;2023-04-06T02:50:14;2.90;72.00
17333;DHT22;8784;50.94667800;7.08448400;2023-04-06T02:52:41;2.80;71.90
17333;DHT22;8784;50.94667800;7.08448400;2023-04-06T02:55:09;2.70;71.80
17333;DHT22;8784;50.94667800;7.08448400;2023-04-06T02:57:36;2.60;71.80
17333;DHT22;8784;50.94667800;7.08448400;2023-04-06T03:00:03;2.60;72.20
17333;DHT22;8784;50.94667800;7.08448400;2023-04-06T03:02:31;2.60;72.30
17333;DHT22;8784;50.94667800;7.08448400;2023-04-06T03:04:58;2.70;72.30
17333;DHT22;8784;50.94667800;7.08448400;2023-04-06T03:07:26;2.60;72.30
17333;DHT22;8784;50.94667800;7.08448400;2023-04-06T03:09:53;2.70;72.30
17333;DHT22;8784;50.94667800;7.08448400;2023-04-06T03:12:20;2.60;72.30
17333;DHT22;8784;50.94667800;7.08448400;2023-04-06T03:14:47;2.60;72.10
17333;DHT22;8784;50.94667800;7.08448400;2023-04-06T03:17:14;2.50;72.10
17333;DHT22;8784;50.94667800;7.08448400;2023-04-06T03:19:41;2.30;72.20
17333;DHT22;8784;50.94667800;7.08448400;2023-04-06T03:22:08;2.40;72.60
17333;DHT22;8784;50.94667800;7.08448400;2023-04-06T03:24:36;2.40;72.70
17333;DHT22;8784;50.94667800;7.08448400;2023-04-06T03:27:03;2.50;72.80
17333;DHT22;8784;50.94667800;7.08448400;2023-04-06T03:29:31;2.50;72.80
17333;DHT22;8784;50.94667800;7.08448400;2023-04-06T03:31:58;2.50;72.80
17333;DHT22;8784;50.94667800;7.08448400;2023-04-06T03:34:25;2.50;72.90
17333;DHT22;8784;50.94667800;7.08448400;2023-04-06T03:36:52;2.40;72.90
17333;DHT22;8784;50.94667800;7.08448400;2023-04-06T03:39:19;2.40;72.90
17333;DHT22;8784;50.94667800;7.08448400;2023-04-06T03:41:47;2.40;72.90
17333;DHT22;8784;50.94667800;7.08448400;2023-04-06T03:44:14;2.40;73.00
17333;DHT22;8784;50.94667800;7.08448400;2023-04-06T03:46:42;2.40;72.90
17333;DHT22;8784;50.94667800;7.08448400;2023-04-06T03:49:09;2.40;73.00
17333;DHT22;8784;50.94667800;7.08448400;2023-04-06T03:51:36;2.40;73.20
17333;DHT22;8784;50.94667800;7.08448400;2023-04-06T03:54:03;2.40;73.20
17333;DHT22;8784;50.94667800;7.08448400;2023-04-06T03:56:30;2.30;73.00
17333;DHT22;8784;50.94667800;7.08448400;2023-04-06T03:58:59;2.30;73.20
17333;DHT22;8784;50.94667800;7.08448400;2023-04-06T04:01:27;2.30;73.30
17333;DHT22;8784;50.94667800;7.08448400;2023-04-06T04:03:54;2.30;73.50
17333;DHT22;8784;50.94667800;7.08448400;2023-04-06T04:06:21;2.30;74.20
17333;DHT22;8784;50.94667800;7.08448400;2023-04-06T04:08:48;2.30;73.50
17333;DHT22;8784;50.94667800;7.08448400;2023-04-06T04:11:15;2.30;73.70
17333;DHT22;8784;50.94667800;7.08448400;2023-04-06T04:13:42;2.30;73.60
17333;DHT22;8784;50.94667800;7.08448400;2023-04-06T04:16:10;2.20;73.70
17333;DHT22;8784;50.94667800;7.08448400;2023-04-06T04:18:37;2.20;73.70
17333;DHT22;8784;50.94667800;7.08448400;2023-04-06T04:21:04;2.20;73.50
17333;DHT22;8784;50.94667800;7.08448400;2023-04-06T04:23:31;2.00;73.40
17333;DHT22;8784;50.94667800;7.08448400;2023-04-06T04:25:58;2.00;73.70
17333;DHT22;8784;50.94667800;7.08448400;2023-04-06T04:28:25;1.80;73.70
17333;DHT22;8784;50.94667800;7.08448400;2023-04-06T04:30:52;1.80;74.00
17333;DHT22;8784;50.94667800;7.08448400;2023-04-06T04:33:20;1.70;74.00
17333;DHT22;8784;50.94667800;7.08448400;2023-04-06T04:35:47;1.70;74.20
17333;DHT22;8784;50.94667800;7.08448400;2023-04-06T04:38:14;1.80;74.40
17333;DHT22;8784;50.94667800;7.08448400;2023-04-06T04:40:41;1.80;74.20
17333;DHT22;8784;50.94667800;7.08448400;2023-04-06T04:43:08;1.80;74.40
17333;DHT22;8784;50.94667800;7.08448400;2023-04-06T04:45:35;1.90;74.60
17333;DHT22;8784;50.94667800;7.08448400;2023-04-06T04:48:02;1.90;74.40
17333;DHT22;8784;50.94667800;7.08448400;2023-04-06T04:50:31;1.90;74.30
17333;DHT22;8784;50.94667800;7.08448400;2023-04-06T04:52:58;2.00;74.30
17333;DHT22;8784;50.94667800;7.08448400;2023-04-06T04:55:26;2.00;74.30
17333;DHT22;8784;50.94667800;7.08448400;2023-04-06T04:57:52;2.00;74.20
17333;DHT22;8784;50.94667800;7.08448400;2023-04-06T05:00:20;2.00;74.30
17333;DHT22;8784;50.94667800;7.08448400;2023-04-06T05:02:47;2.00;74.30
17333;DHT22;8784;50.94667800;7.08448400;2023-04-06T05:05:14;2.00;74.30
17333;DHT22;8784;50.94667800;7.08448400;2023-04-06T05:07:42;2.00;74.50
17333;DHT22;8784;50.94667800;7.08448400;2023-04-06T05:10:10;2.00;74.50
17333;DHT22;8784;50.94667800;7.08448400;2023-04-06T05:12:37;2.00;74.50
17333;DHT22;8784;50.94667800;7.08448400;2023-04-06T05:15:05;2.00;74.40
17333;DHT22;8784;50.94667800;7.08448400;2023-04-06T05:17:32;2.10;74.40
17333;DHT22;8784;50.94667800;7.08448400;2023-04-06T05:20:00;2.10;74.30
17333;DHT22;8784;50.94667800;7.08448400;2023-04-06T05:22:27;2.10;74.30
17333;DHT22;8784;50.94667800;7.08448400;2023-04-06T05:24:56;2.20;74.30
17333;DHT22;8784;50.94667800;7.08448400;2023-04-06T05:27:23;2.30;74.30
17333;DHT22;8784;50.94667800;7.08448400;2023-04-06T05:29:50;2.30;74.20
17333;DHT22;8784;50.94667800;7.08448400;2023-04-06T05:32:17;2.40;74.30
17333;DHT22;8784;50.94667800;7.08448400;2023-04-06T05:34:47;2.40;74.20
17333;DHT22;8784;50.94667800;7.08448400;2023-04-06T05:37:14;2.40;74.10
17333;DHT22;8784;50.94667800;7.08448400;2023-04-06T05:39:41;2.50;74.00
17333;DHT22;8784;50.94667800;7.08448400;2023-04-06T05:42:10;2.60;73.90
17333;DHT22;8784;50.94667800;7.08448400;2023-04-06T05:44:37;2.80;73.80
17333;DHT22;8784;50.94667800;7.08448400;2023-04-06T05:47:04;2.90;73.30
17333;DHT22;8784;50.94667800;7.08448400;2023-04-06T05:49:31;3.00;73.00
17333;DHT22;8784;50.94667800;7.08448400;2023-04-06T05:51:59;3.10;72.90
17333;DHT22;8784;50.94667800;7.08448400;2023-04-06T05:54:26;3.20;72.70
17333;DHT22;8784;50.94667800;7.08448400;2023-04-06T05:56:53;3.40;72.50
17333;DHT22;8784;50.94667800;7.08448400;2023-04-06T05:59:22;3.50;72.30
17333;DHT22;8784;50.94667800;7.08448400;2023-04-06T06:01:49;3.70;72.10
17333;DHT22;8784;50.94667800;7.08448400;2023-04-06T06:04:16;3.90;71.90
17333;DHT22;8784;50.94667800;7.08448400;2023-04-06T06:06:43;4.10;72.10
17333;DHT22;8784;50.94667800;7.08448400;2023-04-06T06:09:10;4.30;72.10
17333;DHT22;8784;50.94667800;7.08448400;2023-04-06T06:11:37;4.40;72.00
17333;DHT22;8784;50.94667800;7.08448400;2023-04-06T06:14:04;4.50;71.90
17333;DHT22;8784;50.94667800;7.08448400;2023-04-06T06:16:33;4.70;71.80
17333;DHT22;8784;50.94667800;7.08448400;2023-04-06T06:19:00;4.90;71.50
17333;DHT22;8784;50.94667800;7.08448400;2023-04-06T06:21:27;5.30;71.10
17333;DHT22;8784;50.94667800;7.08448400;2023-04-06T06:23:54;5.70;70.40
17333;DHT22;8784;50.94667800;7.08448400;2023-04-06T06:26:21;6.30;69.50
17333;DHT22;8784;50.94667800;7.08448400;2023-04-06T06:28:48;7.70;68.80
17333;DHT22;8784;50.94667800;7.08448400;2023-04-06T06:31:15;9.60;67.70
17333;DHT22;8784;50.94667800;7.08448400;2023-04-06T06:33:45;11.10;65.50
17333;DHT22;8784;50.94667800;7.08448400;2023-04-06T06:36:15;12.60;63.70
17333;DHT22;8784;50.94667800;7.08448400;2023-04-06T06:38:43;14.10;61.90
17333;DHT22;8784;50.94667800;7.08448400;2023-04-06T06:41:10;15.50;60.00
17333;DHT22;8784;50.94667800;7.08448400;2023-04-06T06:43:37;16.70;58.20
17333;DHT22;8784;50.94667800;7.08448400;2023-04-06T06:46:04;17.80;57.00
17333;DHT22;8784;50.94667800;7.08448400;2023-04-06T06:48:31;18.40;55.80
17333;DHT22;8784;50.94667800;7.08448400;2023-04-06T06:51:00;19.20;55.30
17333;DHT22;8784;50.94667800;7.08448400;2023-04-06T06:53:27;20.00;54.10
17333;DHT22;8784;50.94667800;7.08448400;2023-04-06T06:55:54;20.40;52.70
17333;DHT22;8784;50.94667800;7.08448400;2023-04-06T06:58:21;20.80;52.10
17333;DHT22;8784;50.94667800;7.08448400;2023-04-06T07:00:48;21.20;51.20
17333;DHT22;8784;50.94667800;7.08448400;2023-04-06T07:03:15;21.30;50.60
17333;DHT22;8784;50.94667800;7.08448400;2023-04-06T07:05:45;21.70;49.80
17333;DHT22;8784;50.94667800;7.08448400;2023-04-06T07:08:16;22.20;49.70
17333;DHT22;8784;50.94667800;7.08448400;2023-04-06T07:10:43;22.20;48.70
17333;DHT22;8784;50.94667800;7.08448400;2023-04-06T07:13:10;22.10;48.40
17333;DHT22;8784;50.94667800;7.08448400;2023-04-06T07:15:37;21.90;48.30
17333;DHT22;8784;50.94667800;7.08448400;2023-04-06T07:18:04;22.20;47.80
17333;DHT22;8784;50.94667800;7.08448400;2023-04-06T07:20:31;22.30;47.90
17333;DHT22;8784;50.94667800;7.08448400;2023-04-06T07:22:58;22.60;47.20
17333;DHT22;8784;50.94667800;7.08448400;2023-04-06T07:25:27;22.40;46.80
17333;DHT22;8784;50.94667800;7.08448400;2023-04-06T07:27:54;21.30;47.00
17333;DHT22;8784;50.94667800;7.08448400;2023-04-06T07:30:21;20.40;47.20
17333;DHT22;8784;50.94667800;7.08448400;2023-04-06T07:32:50;19.40;47.40
17333;DHT22;8784;50.94667800;7.08448400;2023-04-06T07:35:17;18.30;47.70
17333;DHT22;8784;50.94667800;7.08448400;2023-04-06T07:37:44;17.70;48.00
17333;DHT22;8784;50.94667800;7.08448400;2023-04-06T07:40:12;17.10;48.10
17333;DHT22;8784;50.94667800;7.08448400;2023-04-06T07:42:40;16.30;48.20
17333;DHT22;8784;50.94667800;7.08448400;2023-04-06T07:45:08;15.50;48.10
17333;DHT22;8784;50.94667800;7.08448400;2023-04-06T07:47:35;14.80;49.20
17333;DHT22;8784;50.94667800;7.08448400;2023-04-06T07:50:02;14.30;49.30
17333;DHT22;8784;50.94667800;7.08448400;2023-04-06T07:52:29;13.80;49.90
17333;DHT22;8784;50.94667800;7.08448400;2023-04-06T07:54:57;13.50;50.50
17333;DHT22;8784;50.94667800;7.08448400;2023-04-06T07:57:24;13.70;51.10
17333;DHT22;8784;50.94667800;7.08448400;2023-04-06T07:59:53;13.90;50.90
17333;DHT22;8784;50.94667800;7.08448400;2023-04-06T08:02:20;14.00;50.90
17333;DHT22;8784;50.94667800;7.08448400;2023-04-06T08:04:47;14.20;50.80
17333;DHT22;8784;50.94667800;7.08448400;2023-04-06T08:07:14;14.40;50.80
17333;DHT22;8784;50.94667800;7.08448400;2023-04-06T08:09:41;14.60;50.70
17333;DHT22;8784;50.94667800;7.08448400;2023-04-06T08:12:08;14.80;50.50
17333;DHT22;8784;50.94667800;7.08448400;2023-04-06T08:14:35;14.90;50.30
17333;DHT22;8784;50.94667800;7.08448400;2023-04-06T08:17:04;14.90;50.10
17333;DHT22;8784;50.94667800;7.08448400;2023-04-06T08:19:30;14.70;50.10
17333;DHT22;8784;50.94667800;7.08448400;2023-04-06T08:21:57;14.50;50.30
17333;DHT22;8784;50.94667800;7.08448400;2023-04-06T08:24:24;14.60;50.60
17333;DHT22;8784;50.94667800;7.08448400;2023-04-06T08:26:52;14.40;50.50
17333;DHT22;8784;50.94667800;7.08448400;2023-04-06T08:29:19;14.50;50.70
17333;DHT22;8784;50.94667800;7.08448400;2023-04-06T08:31:46;14.20;50.60
17333;DHT22;8784;50.94667800;7.08448400;2023-04-06T08:34:14;14.20;51.00
17333;DHT22;8784;50.94667800;7.08448400;2023-04-06T08:36:42;14.30;51.00
17333;DHT22;8784;50.94667800;7.08448400;2023-04-06T08:39:09;14.40;51.10
17333;DHT22;8784;50.94667800;7.08448400;2023-04-06T08:41:36;14.60;50.90
17333;DHT22;8784;50.94667800;7.08448400;2023-04-06T08:44:03;14.80;50.70
17333;DHT22;8784;50.94667800;7.08448400;2023-04-06T08:46:30;15.10;50.60
17333;DHT22;8784;50.94667800;7.08448400;2023-04-06T08:48:59;15.50;50.30
17333;DHT22;8784;50.94667800;7.08448400;2023-04-06T08:51:28;16.00;50.00
17333;DHT22;8784;50.94667800;7.08448400;2023-04-06T08:53:56;16.20;49.50
17333;DHT22;8784;50.94667800;7.08448400;2023-04-06T08:56:26;16.30;48.80
17333;DHT22;8784;50.94667800;7.08448400;2023-04-06T08:58:54;16.40;49.00
17333;DHT22;8784;50.94667800;7.08448400;2023-04-06T09:01:23;16.80;48.80
17333;DHT22;8784;50.94667800;7.08448400;2023-04-06T09:03:55;17.20;48.70
17333;DHT22;8784;50.94667800;7.08448400;2023-04-06T09:06:22;18.00;48.50
17333;DHT22;8784;50.94667800;7.08448400;2023-04-06T09:08:51;19.40;47.60
17333;DHT22;8784;50.94667800;7.08448400;2023-04-06T09:11:18;20.40;46.50
17333;DHT22;8784;50.94667800;7.08448400;2023-04-06T09:13:47;21.40;45.80
17333;DHT22;8784;50.94667800;7.08448400;2023-04-06T09:16:15;23.30;45.00
17333;DHT22;8784;50.94667800;7.08448400;2023-04-06T09:18:42;25.30;43.80
17333;DHT22;8784;50.94667800;7.08448400;2023-04-06T09:21:10;26.90;42.90
17333;DHT22;8784;50.94667800;7.08448400;2023-04-06T09:23:38;28.30;41.70
17333;DHT22;8784;50.94667800;7.08448400;2023-04-06T09:26:08;28.90;40.60
17333;DHT22;8784;50.94667800;7.08448400;2023-04-06T09:28:43;28.70;39.80
17333;DHT22;8784;50.94667800;7.08448400;2023-04-06T09:31:11;28.00;39.40
17333;DHT22;8784;50.94667800;7.08448400;2023-04-06T09:33:38;27.00;39.70
17333;DHT22;8784;50.94667800;7.08448400;2023-04-06T09:36:06;27.00;39.90
17333;DHT22;8784;50.94667800;7.08448400;2023-04-06T09:38:36;27.40;40.40
17333;DHT22;8784;50.94667800;7.08448400;2023-04-06T09:41:04;28.40;39.80
17333;DHT22;8784;50.94667800;7.08448400;2023-04-06T09:43:32;28.70;38.80
17333;DHT22;8784;50.94667800;7.08448400;2023-04-06T09:46:00;28.90;38.10
17333;DHT22;8784;50.94667800;7.08448400;2023-04-06T09:48:31;28.60;38.70
17333;DHT22;8784;50.94667800;7.08448400;2023-04-06T09:51:03;28.60;38.00
17333;DHT22;8784;50.94667800;7.08448400;2023-04-06T09:53:37;27.70;38.10
17333;DHT22;8784;50.94667800;7.08448400;2023-04-06T09:56:08;27.30;38.70
17333;DHT22;8784;50.94667800;7.08448400;2023-04-06T09:58:43;26.80;39.00
17333;DHT22;8784;50.94667800;7.08448400;2023-04-06T10:01:15;26.40;39.30
17333;DHT22;8784;50.94667800;7.08448400;2023-04-06T10:03:49;26.30;39.40
17333;DHT22;8784;50.94667800;7.08448400;2023-04-06T10:06:21;25.80;39.30
17333;DHT22;8784;50.94667800;7.08448400;2023-04-06T10:08:50;25.40;39.20
17333;DHT22;8784;50.94667800;7.08448400;2023-04-06T10:11:20;24.90;39.70
17333;DHT22;8784;50.94667800;7.08448400;2023-04-06T10:13:49;25.20;39.90
17333;DHT22;8784;50.94667800;7.08448400;2023-04-06T10:16:17;25.50;39.60
17333;DHT22;8784;50.94667800;7.08448400;2023-04-06T10:18:46;25.80;39.30
17333;DHT22;8784;50.94667800;7.08448400;2023-04-06T10:21:17;26.00;39.50
17333;DHT22;8784;50.94667800;7.08448400;2023-04-06T10:23:48;26.40;39.40
17333;DHT22;8784;50.94667800;7.08448400;2023-04-06T10:26:19;26.60;39.10
17333;DHT22;8784;50.94667800;7.08448400;2023-04-06T10:28:49;26.50;39.00
17333;DHT22;8784;50.94667800;7.08448400;2023-04-06T10:31:24;26.70;38.80
17333;DHT22;8784;50.94667800;7.08448400;2023-04-06T10:33:55;26.20;38.30
17333;DHT22;8784;50.94667800;7.08448400;2023-04-06T10:36:24;25.50;38.30
17333;DHT22;8784;50.94667800;7.08448400;2023-04-06T10:38:56;24.80;38.70
17333;DHT22;8784;50.94667800;7.08448400;2023-04-06T10:41:23;24.10;39.10
17333;DHT22;8784;50.94667800;7.08448400;2023-04-06T10:43:57;23.50;39.80
17333;DHT22;8784;50.94667800;7.08448400;2023-04-06T10:46:28;23.20;40.50
17333;DHT22;8784;50.94667800;7.08448400;2023-04-06T10:48:56;23.40;40.50
17333;DHT22;8784;50.94667800;7.08448400;2023-04-06T10:51:25;23.70;40.40
17333;DHT22;8784;50.94667800;7.08448400;2023-04-06T10:53:54;23.60;40.10
17333;DHT22;8784;50.94667800;7.08448400;2023-04-06T10:56:22;22.90;40.70
17333;DHT22;8784;50.94667800;7.08448400;2023-04-06T10:58:52;22.60;41.10
17333;DHT22;8784;50.94667800;7.08448400;2023-04-06T11:01:24;22.00;41.40
17333;DHT22;8784;50.94667800;7.08448400;2023-04-06T11:03:54;21.40;41.90
17333;DHT22;8784;50.94667800;7.08448400;2023-04-06T11:06:22;20.90;42.30
17333;DHT22;8784;50.94667800;7.08448400;2023-04-06T11:08:49;20.60;42.50
17333;DHT22;8784;50.94667800;7.08448400;2023-04-06T11:11:19;20.40;42.80
17333;DHT22;8784;50.94667800;7.08448400;2023-04-06T11:13:48;20.30;43.00
17333;DHT22;8784;50.94667800;7.08448400;2023-04-06T11:16:15;20.40;43.20
17333;DHT22;8784;50.94667800;7.08448400;2023-04-06T11:18:55;20.40;43.20
17333;DHT22;8784;50.94667800;7.08448400;2023-04-06T11:21:33;20.20;43.30
17333;DHT22;8784;50.94667800;7.08448400;2023-04-06T11:24:07;19.80;43.50
17333;DHT22;8784;50.94667800;7.08448400;2023-04-06T11:26:40;19.70;43.90
17333;DHT22;8784;50.94667800;7.08448400;2023-04-06T11:29:07;19.50;43.80
17333;DHT22;8784;50.94667800;7.08448400;2023-04-06T11:31:41;19.00;44.20
17333;DHT22;8784;50.94667800;7.08448400;2023-04-06T11:34:18;18.90;44.70
17333;DHT22;8784;50.94667800;7.08448400;2023-04-06T11:36:48;18.90;45.00
17333;DHT22;8784;50.94667800;7.08448400;2023-04-06T11:39:18;18.90;45.10
17333;DHT22;8784;50.94667800;7.08448400;2023-04-06T11:41:47;18.80;45.00
17333;DHT22;8784;50.94667800;7.08448400;2023-04-06T11:44:15;18.80;45.00
17333;DHT22;8784;50.94667800;7.08448400;2023-04-06T11:46:51;18.80;45.00
17333;DHT22;8784;50.94667800;7.08448400;2023-04-06T11:49:20;18.60;44.90
17333;DHT22;8784;50.94667800;7.08448400;2023-04-06T11:51:50;18.30;45.20
17333;DHT22;8784;50.94667800;7.08448400;2023-04-06T11:54:17;18.20;45.40
17333;DHT22;8784;50.94667800;7.08448400;2023-04-06T11:56:46;18.00;45.50
17333;DHT22;8784;50.94667800;7.08448400;2023-04-06T11:59:13;17.80;45.70
17333;DHT22;8784;50.94667800;7.08448400;2023-04-06T12:01:45;17.80;45.70
17333;DHT22;8784;50.94667800;7.08448400;2023-04-06T12:04:12;17.60;45.80
17333;DHT22;8784;50.94667800;7.08448400;2023-04-06T12:06:40;17.50;45.90
17333;DHT22;8784;50.94667800;7.08448400;2023-04-06T12:09:07;17.60;46.10
17333;DHT22;8784;50.94667800;7.08448400;2023-04-06T12:11:34;17.50;46.10
17333;DHT22;8784;50.94667800;7.08448400;2023-04-06T12:14:02;17.40;46.20
17333;DHT22;8784;50.94667800;7.08448400;2023-04-06T12:16:30;17.30;46.30
17333;DHT22;8784;50.94667800;7.08448400;2023-04-06T12:18:57;17.10;46.50
17333;DHT22;8784;50.94667800;7.08448400;2023-04-06T12:21:24;17.10;46.80
17333;DHT22;8784;50.94667800;7.08448400;2023-04-06T12:23:52;17.10;47.00
17333;DHT22;8784;50.94667800;7.08448400;2023-04-06T12:26:19;17.00;47.00
17333;DHT22;8784;50.94667800;7.08448400;2023-04-06T12:28:46;16.90;47.00
17333;DHT22;8784;50.94667800;7.08448400;2023-04-06T12:31:17;16.90;47.30
17333;DHT22;8784;50.94667800;7.08448400;2023-04-06T12:33:46;17.10;47.40
17333;DHT22;8784;50.94667800;7.08448400;2023-04-06T12:36:13;17.10;47.30
17333;DHT22;8784;50.94667800;7.08448400;2023-04-06T12:38:41;17.20;47.40
17333;DHT22;8784;50.94667800;7.08448400;2023-04-06T12:41:11;17.30;47.30
17333;DHT22;8784;50.94667800;7.08448400;2023-04-06T12:43:39;17.20;47.30
17333;DHT22;8784;50.94667800;7.08448400;2023-04-06T12:46:06;17.20;47.30
17333;DHT22;8784;50.94667800;7.08448400;2023-04-06T12:48:33;17.20;47.10
17333;DHT22;8784;50.94667800;7.08448400;2023-04-06T12:51:02;17.20;47.20
17333;DHT22;8784;50.94667800;7.08448400;2023-04-06T12:53:29;17.20;47.20
17333;DHT22;8784;50.94667800;7.08448400;2023-04-06T12:55:56;17.20;47.20
17333;DHT22;8784;50.94667800;7.08448400;2023-04-06T12:58:25;17.20;47.20
17333;DHT22;8784;50.94667800;7.08448400;2023-04-06T13:00:54;17.10;47.00
17333;DHT22;8784;50.94667800;7.08448400;2023-04-06T13:03:21;17.10;47.10
17333;DHT22;8784;50.94667800;7.08448400;2023-04-06T13:05:50;17.00;47.30
17333;DHT22;8784;50.94667800;7.08448400;2023-04-06T13:08:18;17.00;47.50
17333;DHT22;8784;50.94667800;7.08448400;2023-04-06T13:10:47;16.80;47.70
17333;DHT22;8784;50.94667800;7.08448400;2023-04-06T13:13:14;16.80;47.80
17333;DHT22;8784;50.94667800;7.08448400;2023-04-06T13:15:43;16.80;48.00
17333;DHT22;8784;50.94667800;7.08448400;2023-04-06T13:18:10;16.80;48.00
17333;DHT22;8784;50.94667800;7.08448400;2023-04-06T13:20:37;16.80;48.00
17333;DHT22;8784;50.94667800;7.08448400;2023-04-06T13:23:05;16.70;48.20
17333;DHT22;8784;50.94667800;7.08448400;2023-04-06T13:25:32;16.60;48.20
17333;DHT22;8784;50.94667800;7.08448400;2023-04-06T13:27:59;16.30;48.30
17333;DHT22;8784;50.94667800;7.08448400;2023-04-06T13:30:26;16.10;48.70
17333;DHT22;8784;50.94667800;7.08448400;2023-04-06T13:32:54;16.00;49.70
17333;DHT22;8784;50.94667800;7.08448400;2023-04-06T13:35:21;16.00;49.30
17333;DHT22;8784;50.94667800;7.08448400;2023-04-06T13:37:48;16.00;49.50
17333;DHT22;8784;50.94667800;7.08448400;2023-04-06T13:40:17;16.00;49.80
17333;DHT22;8784;50.94667800;7.08448400;2023-04-06T13:42:44;16.00;49.90